createdAt,value
2022-12-18T00:00:13.926Z,271.00
2022-12-18T00:00:58.878Z,259.00
2022-12-18T00:01:44.276Z,203.00
2022-12-18T00:02:29.433Z,128.00
2022-12-18T00:03:14.596Z,145.00
2022-12-18T00:03:59.766Z,144.00
2022-12-18T00:04:44.563Z,138.00
2022-12-18T00:05:29.445Z,158.00
2022-12-18T00:06:14.717Z,160.00
2022-12-18T00:06:59.637Z,217.00
2022-12-18T00:07:44.609Z,99.00
2022-12-18T00:08:29.844Z,114.00
2022-12-18T00:09:14.702Z,116.00
2022-12-18T00:09:59.656Z,92.00
2022-12-18T00:10:44.924Z,74.00
2022-12-18T00:11:30.004Z,216.00
2022-12-18T00:13:01.566Z,162.00
2022-12-18T00:13:44.625Z,104.00
2022-12-18T00:14:30.208Z,111.00
2022-12-18T00:15:14.846Z,120.00
2022-12-18T00:16:00.270Z,59.00
2022-12-18T00:16:45.390Z,143.00
2022-12-18T00:17:30.318Z,178.00
2022-12-18T00:18:18.965Z,172.00
2022-12-18T00:19:00.226Z,139.00
2022-12-18T00:19:45.239Z,162.00
2022-12-18T00:20:30.342Z,149.00
2022-12-18T00:21:15.353Z,253.00
2022-12-18T00:22:00.248Z,270.00
2022-12-18T00:22:46.300Z,270.00
2022-12-18T00:23:29.974Z,271.00
2022-12-18T00:24:16.033Z,271.00
2022-12-18T00:25:00.779Z,284.00
2022-12-18T00:25:45.361Z,279.00
2022-12-18T00:26:30.725Z,279.00
2022-12-18T00:27:16.050Z,279.00
2022-12-18T00:28:00.889Z,279.00
2022-12-18T00:28:46.024Z,279.00
2022-12-18T00:29:30.919Z,279.00
2022-12-18T00:30:15.873Z,279.00
2022-12-18T00:31:00.926Z,279.00
2022-12-18T00:31:46.120Z,279.00
2022-12-18T00:32:31.355Z,279.00
2022-12-18T00:33:18.166Z,279.00
2022-12-18T00:34:02.594Z,279.00
2022-12-18T00:34:50.304Z,279.00
2022-12-18T00:35:35.417Z,279.00
2022-12-18T00:36:17.958Z,279.00
2022-12-18T00:37:02.997Z,279.00
2022-12-18T00:37:49.614Z,279.00
2022-12-18T00:38:34.253Z,279.00
2022-12-18T00:39:17.876Z,279.00
2022-12-18T00:40:02.317Z,279.00
2022-12-18T00:40:49.126Z,279.00
2022-12-18T00:41:32.958Z,279.00
2022-12-18T00:42:17.900Z,279.00
2022-12-18T00:43:04.722Z,279.00
2022-12-18T00:43:48.318Z,279.00
2022-12-18T00:44:32.264Z,279.00
2022-12-18T00:45:17.677Z,279.00
2022-12-18T00:46:02.629Z,279.00
2022-12-18T00:46:47.317Z,279.00
2022-12-18T00:47:32.471Z,279.00
2022-12-18T00:48:17.532Z,279.00
2022-12-18T00:49:02.398Z,279.00
2022-12-18T00:49:47.259Z,279.00
2022-12-18T00:50:32.600Z,279.00
2022-12-18T00:51:17.555Z,279.00
2022-12-18T00:52:02.712Z,279.00
2022-12-18T00:52:47.869Z,279.00
2022-12-18T00:53:32.721Z,279.00
2022-12-18T00:54:18.081Z,279.00
2022-12-18T00:55:06.301Z,279.00
2022-12-18T00:55:48.300Z,279.00
2022-12-18T00:56:33.161Z,279.00
2022-12-18T00:57:18.418Z,279.00
2022-12-18T00:58:03.892Z,279.00
2022-12-18T00:58:48.639Z,279.00
2022-12-18T00:59:33.533Z,279.00
2022-12-18T01:00:18.331Z,279.00
2022-12-18T01:01:03.444Z,279.00
2022-12-18T01:01:48.739Z,279.00
2022-12-18T01:02:33.694Z,279.00
2022-12-18T01:03:18.493Z,279.00
2022-12-18T01:04:03.628Z,279.00
2022-12-18T01:04:48.872Z,279.00
2022-12-18T01:05:33.936Z,279.00
2022-12-18T01:06:18.987Z,279.00
2022-12-18T01:07:03.939Z,279.00
2022-12-18T01:07:49.103Z,279.00
2022-12-18T01:08:34.215Z,279.00
2022-12-18T01:09:18.804Z,279.00
2022-12-18T01:10:04.164Z,279.00
2022-12-18T01:10:49.125Z,279.00
2022-12-18T01:11:33.898Z,279.00
2022-12-18T01:12:19.195Z,279.00
2022-12-18T01:13:04.390Z,279.00
2022-12-18T01:13:49.472Z,279.00
2022-12-18T01:14:34.302Z,279.00
2022-12-18T01:15:19.354Z,279.00
2022-12-18T01:16:04.444Z,279.00
2022-12-18T01:16:49.553Z,279.00
2022-12-18T01:17:34.539Z,279.00
2022-12-18T01:18:20.300Z,279.00
2022-12-18T01:19:04.944Z,279.00
2022-12-18T01:19:49.852Z,279.00
2022-12-18T01:20:34.957Z,279.00
2022-12-18T01:21:19.831Z,279.00
2022-12-18T01:22:04.968Z,279.00
2022-12-18T01:22:50.158Z,279.00
2022-12-18T01:23:35.011Z,279.00
2022-12-18T01:24:19.627Z,101.92
2022-12-18T01:25:04.930Z,143.40
2022-12-18T01:25:50.554Z,143.40
2022-12-18T01:26:34.829Z,143.40
2022-12-18T01:27:19.861Z,121.14
2022-12-18T01:28:04.918Z,121.14
2022-12-18T01:28:50.042Z,121.14
2022-12-18T01:29:35.366Z,121.14
2022-12-18T01:30:19.981Z,121.14
2022-12-18T01:31:05.479Z,121.14
2022-12-18T01:31:50.715Z,121.14
2022-12-18T01:32:35.144Z,121.14
2022-12-18T01:33:20.199Z,121.14
2022-12-18T01:34:05.262Z,121.14
2022-12-18T01:34:50.515Z,121.14
2022-12-18T01:35:34.969Z,247.00
2022-12-18T01:36:20.123Z,243.00
2022-12-18T01:37:05.028Z,230.00
2022-12-18T01:37:50.635Z,230.00
2022-12-18T01:38:35.504Z,230.00
2022-12-18T01:39:20.664Z,230.00
2022-12-18T01:40:05.608Z,230.00
2022-12-18T01:40:50.867Z,230.00
2022-12-18T01:41:35.821Z,230.00
2022-12-18T01:42:21.185Z,230.00
2022-12-18T01:43:05.727Z,230.00
2022-12-18T01:43:51.401Z,230.00
2022-12-18T01:44:35.945Z,230.00
2022-12-18T01:45:21.008Z,230.00
2022-12-18T01:46:06.117Z,230.00
2022-12-18T01:46:51.246Z,230.00
2022-12-18T01:47:37.293Z,230.00
2022-12-18T01:48:21.641Z,230.00
2022-12-18T01:49:06.121Z,255.00
2022-12-18T01:49:51.886Z,269.00
2022-12-18T01:50:36.495Z,261.00
2022-12-18T01:51:21.861Z,261.00
2022-12-18T01:52:07.135Z,261.00
2022-12-18T01:52:51.875Z,261.00
2022-12-18T01:53:37.363Z,261.00
2022-12-18T01:54:22.099Z,261.00
2022-12-18T01:55:06.835Z,261.00
2022-12-18T01:55:52.196Z,261.00
2022-12-18T01:56:37.385Z,261.00
2022-12-18T01:57:22.482Z,261.00
2022-12-18T01:58:07.576Z,261.00
2022-12-18T01:58:52.836Z,261.00
2022-12-18T01:59:37.476Z,261.00
2022-12-18T02:00:22.741Z,261.00
2022-12-18T02:01:07.953Z,261.00
2022-12-18T02:01:53.202Z,261.00
2022-12-18T02:02:37.773Z,261.00
2022-12-18T02:03:22.918Z,261.00
2022-12-18T02:04:07.716Z,153.43
2022-12-18T02:04:52.885Z,107.10
2022-12-18T02:05:37.635Z,112.92
2022-12-18T02:06:22.693Z,106.53
2022-12-18T02:07:07.887Z,99.02
2022-12-18T02:07:52.996Z,130.39
2022-12-18T02:08:37.976Z,140.19
2022-12-18T02:09:22.845Z,166.25
2022-12-18T02:10:07.876Z,213.73
2022-12-18T02:10:53.019Z,197.59
2022-12-18T02:11:37.866Z,243.94
2022-12-18T02:12:23.232Z,237.99
2022-12-18T02:13:08.294Z,254.00
2022-12-18T02:13:53.245Z,275.00
2022-12-18T02:14:38.196Z,254.00
2022-12-18T02:15:23.052Z,270.00
2022-12-18T02:16:08.355Z,259.00
2022-12-18T02:16:53.211Z,247.00
2022-12-18T02:17:38.318Z,250.00
2022-12-18T02:18:23.278Z,251.00
2022-12-18T02:19:08.333Z,248.00
2022-12-18T02:19:53.222Z,256.00
2022-12-18T02:20:38.647Z,247.00
2022-12-18T02:21:23.625Z,237.00
2022-12-18T02:22:08.662Z,257.00
2022-12-18T02:22:53.589Z,248.00
2022-12-18T02:23:39.153Z,255.00
2022-12-18T02:24:23.729Z,157.00
2022-12-18T02:25:08.564Z,134.00
2022-12-18T02:25:54.578Z,148.00
2022-12-18T02:26:38.490Z,148.00
2022-12-18T02:27:24.169Z,104.96
2022-12-18T02:28:09.122Z,245.00
2022-12-18T02:28:54.171Z,129.78
2022-12-18T02:29:39.123Z,147.22
2022-12-18T02:30:24.155Z,147.05
2022-12-18T02:31:09.198Z,154.96
2022-12-18T02:31:54.501Z,154.88
2022-12-18T02:32:39.254Z,182.73
2022-12-18T02:33:24.300Z,204.08
2022-12-18T02:34:09.267Z,179.07
2022-12-18T02:34:54.532Z,192.14
2022-12-18T02:35:39.926Z,179.07
2022-12-18T02:36:24.632Z,161.76
2022-12-18T02:37:09.702Z,162.74
2022-12-18T02:37:54.691Z,152.17
2022-12-18T02:38:39.933Z,174.90
2022-12-18T02:39:25.016Z,197.30
2022-12-18T02:40:09.916Z,162.74
2022-12-18T02:40:54.968Z,172.93
2022-12-18T02:41:39.820Z,172.42
2022-12-18T02:42:25.596Z,271.00
2022-12-18T02:43:10.033Z,221.00
2022-12-18T02:43:55.214Z,252.99
2022-12-18T02:44:40.207Z,239.00
2022-12-18T02:45:24.998Z,220.00
2022-12-18T02:46:10.191Z,228.00
2022-12-18T02:46:55.218Z,211.00
2022-12-18T02:47:40.580Z,236.00
2022-12-18T02:48:25.535Z,134.00
2022-12-18T02:49:10.495Z,131.00
2022-12-18T02:49:55.446Z,123.00
2022-12-18T02:50:40.295Z,128.00
2022-12-18T02:51:25.762Z,159.00
2022-12-18T02:52:10.711Z,152.00
2022-12-18T02:52:55.772Z,121.00
2022-12-18T02:53:41.213Z,133.00
2022-12-18T02:54:25.784Z,120.00
2022-12-18T02:55:10.632Z,196.00
2022-12-18T02:55:56.006Z,196.00
2022-12-18T02:56:40.977Z,206.00
2022-12-18T02:57:26.031Z,231.00
2022-12-18T02:58:11.056Z,211.00
2022-12-18T02:58:56.116Z,204.00
2022-12-18T02:59:41.389Z,215.00
2022-12-18T03:00:26.228Z,205.00
2022-12-18T03:01:11.335Z,205.00
2022-12-18T03:01:56.635Z,202.00
2022-12-18T03:02:41.656Z,209.00
2022-12-18T03:03:26.365Z,258.00
2022-12-18T03:04:11.550Z,264.00
2022-12-18T03:04:56.465Z,267.00
2022-12-18T03:05:41.522Z,251.00
2022-12-18T03:06:26.599Z,251.00
2022-12-18T03:07:11.234Z,250.00
2022-12-18T03:07:56.500Z,252.00
2022-12-18T03:08:42.007Z,252.00
2022-12-18T03:09:26.807Z,238.00
2022-12-18T03:10:11.897Z,262.00
2022-12-18T03:10:56.515Z,254.00
2022-12-18T03:11:41.873Z,250.00
2022-12-18T03:12:26.725Z,257.00
2022-12-18T03:13:12.296Z,245.00
2022-12-18T03:13:56.948Z,244.00
2022-12-18T03:14:42.329Z,245.00
2022-12-18T03:15:27.365Z,252.00
2022-12-18T03:16:12.321Z,246.00
2022-12-18T03:16:57.404Z,241.00
2022-12-18T03:17:42.320Z,224.00
2022-12-18T03:18:27.610Z,256.00
2022-12-18T03:19:12.436Z,236.00
2022-12-18T03:19:57.707Z,249.00
2022-12-18T03:20:42.769Z,252.00
2022-12-18T03:21:27.704Z,256.00
2022-12-18T03:22:12.869Z,253.00
2022-12-18T03:22:57.817Z,267.00
2022-12-18T03:23:43.395Z,240.00
2022-12-18T03:24:28.155Z,241.00
2022-12-18T03:25:12.894Z,254.00
2022-12-18T03:26:00.005Z,281.00
2022-12-18T03:26:43.127Z,274.00
2022-12-18T03:27:28.398Z,193.53
2022-12-18T03:28:13.211Z,254.00
2022-12-18T03:28:58.609Z,191.26
2022-12-18T03:29:43.223Z,246.00
2022-12-18T03:30:28.414Z,262.00
2022-12-18T03:31:13.591Z,246.00
2022-12-18T03:31:58.733Z,259.00
2022-12-18T03:32:43.758Z,264.00
2022-12-18T03:33:28.515Z,271.00
2022-12-18T03:34:13.772Z,264.00
2022-12-18T03:34:58.765Z,259.00
2022-12-18T03:35:44.250Z,267.00
2022-12-18T03:36:28.760Z,247.00
2022-12-18T03:37:14.511Z,219.61
2022-12-18T03:37:59.154Z,153.56
2022-12-18T03:38:44.114Z,259.00
2022-12-18T03:39:28.926Z,138.32
2022-12-18T03:40:14.042Z,116.98
2022-12-18T03:40:58.920Z,106.85
2022-12-18T03:41:44.237Z,133.52
2022-12-18T03:42:29.181Z,127.75
2022-12-18T03:43:14.142Z,113.10
2022-12-18T03:43:59.205Z,130.74
2022-12-18T03:44:43.970Z,144.72
2022-12-18T03:45:29.522Z,210.87
2022-12-18T03:46:14.546Z,120.39
2022-12-18T03:46:59.533Z,109.00
2022-12-18T03:47:44.475Z,107.47
2022-12-18T03:48:30.436Z,122.68
2022-12-18T03:49:14.513Z,108.74
2022-12-18T03:49:59.464Z,123.84
2022-12-18T03:50:44.724Z,96.18
2022-12-18T03:51:31.816Z,96.18
2022-12-18T03:52:14.614Z,96.50
2022-12-18T03:52:59.770Z,139.54
2022-12-18T03:53:44.827Z,125.92
2022-12-18T03:54:30.086Z,99.55
2022-12-18T03:55:15.177Z,113.56
2022-12-18T03:56:00.650Z,81.15
2022-12-18T03:56:45.050Z,81.15
2022-12-18T03:57:29.909Z,106.51
2022-12-18T03:58:16.092Z,119.54
2022-12-18T03:59:00.429Z,136.14
2022-12-18T03:59:45.488Z,73.12
2022-12-18T04:00:30.482Z,71.15
2022-12-18T04:15:36.496Z,104.99
2022-12-18T04:16:20.819Z,196.99
2022-12-18T04:17:05.883Z,193.99
2022-12-18T04:17:51.567Z,174.97
2022-12-18T04:18:36.203Z,196.99
2022-12-18T04:19:21.357Z,140.03
2022-12-18T04:20:06.428Z,140.03
2022-12-18T04:20:51.573Z,140.03
2022-12-18T04:21:36.111Z,128.99
2022-12-18T04:22:21.427Z,128.99
2022-12-18T04:23:07.564Z,201.98
2022-12-18T04:23:52.023Z,231.99
2022-12-18T04:24:36.245Z,216.99
2022-12-18T04:25:21.298Z,202.99
2022-12-18T04:26:06.649Z,193.99
2022-12-18T04:26:51.622Z,192.96
2022-12-18T04:27:36.566Z,205.99
2022-12-18T04:28:21.827Z,200.99
2022-12-18T04:29:07.034Z,191.99
2022-12-18T04:29:51.725Z,197.99
2022-12-18T05:33:38.728Z,180.97
2022-12-18T05:34:23.139Z,113.97
2022-12-18T05:35:08.265Z,183.97
2022-12-18T05:35:53.360Z,183.97
2022-12-18T05:36:38.272Z,184.97
2022-12-18T05:37:23.428Z,184.97
2022-12-18T05:38:08.595Z,184.97
2022-12-18T05:38:53.750Z,184.97
2022-12-18T05:39:38.307Z,143.97
2022-12-18T05:40:23.555Z,200.96
2022-12-18T05:41:08.510Z,182.97
2022-12-18T05:41:53.985Z,203.97
2022-12-18T05:42:38.520Z,203.97
2022-12-18T05:43:23.930Z,203.97
2022-12-18T05:44:08.732Z,137.97
2022-12-18T05:44:54.100Z,212.96
2022-12-18T05:45:38.962Z,217.96
2022-12-18T05:46:24.600Z,198.96
2022-12-18T05:47:09.184Z,108.97
2022-12-18T05:47:54.025Z,156.19
2022-12-18T05:48:39.308Z,156.19
2022-12-18T05:49:24.228Z,204.97
2022-12-18T05:50:09.189Z,226.96
2022-12-18T05:50:54.072Z,223.96
2022-12-18T05:51:39.235Z,210.96
2022-12-18T05:52:24.476Z,220.97
2022-12-18T05:53:09.518Z,206.97
2022-12-18T05:53:54.202Z,118.98
2022-12-18T05:54:39.443Z,118.98
2022-12-18T05:55:24.987Z,118.98
2022-12-18T05:56:09.849Z,118.98
2022-12-18T05:56:55.019Z,118.98
2022-12-18T05:57:39.660Z,118.98
2022-12-18T05:58:24.723Z,209.98
2022-12-18T05:59:09.666Z,230.97
2022-12-18T05:59:55.457Z,230.97
2022-12-18T06:00:40.181Z,230.97
2022-12-18T06:01:25.626Z,230.97
2022-12-18T06:02:10.605Z,230.97
2022-12-18T06:02:55.514Z,230.97
2022-12-18T06:03:40.915Z,230.97
2022-12-18T06:04:25.483Z,230.97
2022-12-18T06:05:10.417Z,230.97
2022-12-18T06:05:55.580Z,230.97
2022-12-18T06:06:40.643Z,230.97
2022-12-18T06:07:25.692Z,230.97
2022-12-18T06:08:10.658Z,230.97
2022-12-18T06:08:55.396Z,230.97
2022-12-18T06:09:40.889Z,230.97
2022-12-18T06:10:25.776Z,230.97
2022-12-18T06:11:12.038Z,189.72
2022-12-18T06:11:55.450Z,192.97
2022-12-18T06:12:40.679Z,192.97
2022-12-18T06:13:26.343Z,192.97
2022-12-18T06:14:11.426Z,192.97
2022-12-18T06:14:56.262Z,192.97
2022-12-18T06:15:41.366Z,192.97
2022-12-18T06:16:26.118Z,192.97
2022-12-18T06:17:11.020Z,192.97
2022-12-18T06:17:56.274Z,192.97
2022-12-18T06:18:41.180Z,192.97
2022-12-18T06:19:26.285Z,192.97
2022-12-18T06:20:11.441Z,192.97
2022-12-18T06:20:57.014Z,192.97
2022-12-18T06:21:41.661Z,192.97
2022-12-18T06:22:27.229Z,192.97
2022-12-18T06:23:12.179Z,192.97
2022-12-18T06:23:58.568Z,192.97
2022-12-18T06:24:41.990Z,192.97
2022-12-18T06:25:26.839Z,101.84
2022-12-18T06:26:11.661Z,101.84
2022-12-18T06:26:56.852Z,114.64
2022-12-18T06:27:41.952Z,126.87
2022-12-18T06:28:26.803Z,115.36
2022-12-18T06:29:11.856Z,178.13
2022-12-18T06:29:56.974Z,119.43
2022-12-18T06:30:42.072Z,113.92
2022-12-18T06:31:27.405Z,119.11
2022-12-18T06:32:11.939Z,119.11
2022-12-18T06:32:57.300Z,130.39
2022-12-18T06:33:42.645Z,129.07
2022-12-18T06:34:27.207Z,123.43
2022-12-18T06:35:12.161Z,128.10
2022-12-18T06:36:01.022Z,206.97
2022-12-18T06:36:42.691Z,206.97
2022-12-18T06:37:27.538Z,110.83
2022-12-18T06:38:12.509Z,111.06
2022-12-18T06:38:57.550Z,110.12
2022-12-18T06:39:43.323Z,126.86
2022-12-18T06:40:27.353Z,121.04
2022-12-18T06:41:12.920Z,121.27
2022-12-18T06:41:57.880Z,110.93
2022-12-18T06:42:42.733Z,113.63
2022-12-18T06:43:28.191Z,111.09
2022-12-18T06:44:12.564Z,128.06
2022-12-18T06:44:57.814Z,113.83
2022-12-18T06:45:43.234Z,135.93
2022-12-18T06:46:28.117Z,107.10
2022-12-18T06:47:13.079Z,119.04
2022-12-18T06:47:58.228Z,119.04
2022-12-18T06:48:44.246Z,119.04
2022-12-18T06:49:30.468Z,119.04
2022-12-18T06:50:13.601Z,119.04
2022-12-18T06:50:58.656Z,98.58
2022-12-18T06:51:43.717Z,93.77
2022-12-18T06:52:28.829Z,122.93
2022-12-18T06:53:13.728Z,105.31
2022-12-18T06:53:58.501Z,105.31
2022-12-18T06:54:43.934Z,105.31
2022-12-18T06:55:28.683Z,114.23
2022-12-18T06:56:13.749Z,112.81
2022-12-18T06:56:59.141Z,112.81
2022-12-18T06:57:43.603Z,74.77
2022-12-18T06:58:29.224Z,102.63
2022-12-18T06:59:16.369Z,102.63
2022-12-18T06:59:59.023Z,115.60
2022-12-18T07:00:44.114Z,161.43
2022-12-18T07:01:29.272Z,146.36
2022-12-18T07:02:14.381Z,99.24
2022-12-18T07:02:59.292Z,127.48
2022-12-18T07:03:44.957Z,136.59
2022-12-18T07:04:29.468Z,119.95
2022-12-18T07:05:14.423Z,94.53
2022-12-18T07:06:01.322Z,94.53
2022-12-18T07:06:44.843Z,106.87
2022-12-18T07:07:30.118Z,121.37
2022-12-18T07:08:14.235Z,87.37
2022-12-18T07:08:59.808Z,87.37
2022-12-18T07:09:44.621Z,87.37
2022-12-18T07:10:30.315Z,87.37
2022-12-18T07:11:15.391Z,87.37
2022-12-18T07:12:00.142Z,87.37
2022-12-18T07:12:44.983Z,87.37
2022-12-18T07:13:30.045Z,87.37
2022-12-18T07:14:15.102Z,87.37
2022-12-18T07:15:00.266Z,87.37
2022-12-18T07:15:45.318Z,87.37
2022-12-18T07:16:30.364Z,87.37
2022-12-18T07:17:15.325Z,87.37
2022-12-18T07:18:00.390Z,87.37
2022-12-18T07:18:45.747Z,87.37
2022-12-18T07:19:31.106Z,87.37
2022-12-18T07:20:15.759Z,87.37
2022-12-18T07:21:00.763Z,87.37
2022-12-18T07:21:46.076Z,87.37
2022-12-18T07:22:31.170Z,87.37
2022-12-18T07:23:16.087Z,87.37
2022-12-18T07:24:00.839Z,75.96
2022-12-18T07:24:46.195Z,227.97
2022-12-18T07:25:31.068Z,115.13
2022-12-18T07:26:16.099Z,179.97
2022-12-18T07:27:01.775Z,144.97
2022-12-18T07:27:46.719Z,125.98
2022-12-18T07:28:31.197Z,128.98
2022-12-18T07:29:16.460Z,126.98
2022-12-18T07:30:01.312Z,244.93
2022-12-18T07:30:46.473Z,243.96
2022-12-18T07:31:31.347Z,219.96
2022-12-18T07:32:16.756Z,244.95
2022-12-18T07:33:01.533Z,239.96
2022-12-18T07:33:46.147Z,228.96
2022-12-18T07:34:31.578Z,259.95
2022-12-18T07:35:19.376Z,243.96
2022-12-18T07:36:02.129Z,243.96
2022-12-18T07:36:47.011Z,217.97
2022-12-18T07:37:31.644Z,217.95
2022-12-18T07:38:16.901Z,220.97
2022-12-18T07:39:01.660Z,238.96
2022-12-18T07:39:47.044Z,197.24
2022-12-18T07:40:31.982Z,226.97
2022-12-18T07:41:17.233Z,229.97
2022-12-18T07:42:02.182Z,237.96
2022-12-18T07:42:47.388Z,185.97
2022-12-18T07:43:32.309Z,130.98
2022-12-18T07:44:17.562Z,205.97
2022-12-18T07:45:02.559Z,226.97
2022-12-18T07:45:47.663Z,218.97
2022-12-18T07:46:32.556Z,214.97
2022-12-18T07:47:17.589Z,212.97
2022-12-18T07:48:02.638Z,147.97
2022-12-18T07:48:49.989Z,151.98
2022-12-18T07:49:32.556Z,214.97
2022-12-18T07:50:17.805Z,224.97
2022-12-18T07:51:02.969Z,211.97
2022-12-18T07:51:47.966Z,195.97
2022-12-18T07:52:32.975Z,131.13
2022-12-18T07:53:18.032Z,165.98
2022-12-18T07:54:03.536Z,149.98
2022-12-18T07:54:48.296Z,161.98
2022-12-18T07:55:51.823Z,139.98
2022-12-18T07:56:27.166Z,160.98
2022-12-18T07:57:03.526Z,200.97
2022-12-18T07:57:51.421Z,216.96
2022-12-18T07:58:33.330Z,172.97
2022-12-18T07:59:19.202Z,174.98
2022-12-18T08:00:03.542Z,145.98
2022-12-18T08:00:48.740Z,145.98
2022-12-18T08:01:33.830Z,161.98
2022-12-18T08:02:18.926Z,139.99
2022-12-18T08:03:03.741Z,133.99
2022-12-18T08:03:48.931Z,129.99
2022-12-18T08:04:33.802Z,194.97
2022-12-18T08:05:19.170Z,194.97
2022-12-18T08:06:03.896Z,153.98
2022-12-18T08:06:49.356Z,189.96
2022-12-18T08:07:34.338Z,151.98
2022-12-18T08:08:19.735Z,144.98
2022-12-18T08:09:04.574Z,241.96
2022-12-18T08:09:49.489Z,247.96
2022-12-18T08:10:34.084Z,225.97
2022-12-18T08:11:19.119Z,219.97
2022-12-18T08:12:04.439Z,219.97
2022-12-18T08:12:49.497Z,219.97
2022-12-18T08:14:25.486Z,0.00
2022-12-18T08:15:10.136Z,0.00
2022-12-18T08:15:54.935Z,0.00
2022-12-18T08:16:40.162Z,0.00
2022-12-18T08:17:25.368Z,0.00
2022-12-18T08:18:14.030Z,0.00
2022-12-18T08:18:55.491Z,0.00
2022-12-18T08:19:40.385Z,0.00
2022-12-18T08:20:25.389Z,0.00
2022-12-18T08:21:10.498Z,0.00
2022-12-18T08:21:55.529Z,0.00
2022-12-18T08:22:40.564Z,0.00
2022-12-18T08:23:28.556Z,0.00
2022-12-18T08:24:19.819Z,0.00
2022-12-18T08:25:04.222Z,0.00
2022-12-18T08:25:59.147Z,0.00
2022-12-18T08:26:51.799Z,0.00
2022-12-18T08:27:30.148Z,0.00
2022-12-18T08:28:13.772Z,0.00
2022-12-18T08:28:58.827Z,0.00
2022-12-18T08:29:43.990Z,0.00
2022-12-18T08:30:29.528Z,0.00
2022-12-18T08:31:14.443Z,0.00
2022-12-18T08:31:59.396Z,0.00
2022-12-18T08:32:44.313Z,0.00
2022-12-18T08:33:29.503Z,0.00
2022-12-18T08:34:14.650Z,0.00
2022-12-18T08:34:59.870Z,0.00
2022-12-18T08:35:46.187Z,0.00
2022-12-18T08:36:30.148Z,0.00
2022-12-18T08:37:14.694Z,0.00
2022-12-18T08:37:59.922Z,0.00
2022-12-18T08:38:45.178Z,0.00
2022-12-18T08:39:29.927Z,0.00
2022-12-18T08:40:14.795Z,0.00
2022-12-18T08:40:59.874Z,0.00
2022-12-18T08:41:45.129Z,0.00
2022-12-18T08:42:30.046Z,0.00
2022-12-18T08:43:15.312Z,0.00
2022-12-18T08:44:00.205Z,0.00
2022-12-18T08:44:45.520Z,0.00
2022-12-18T08:45:30.388Z,0.00
2022-12-18T08:46:15.375Z,78.46
2022-12-18T08:47:00.181Z,75.01
2022-12-18T08:47:45.551Z,75.01
2022-12-18T08:48:30.466Z,75.01
2022-12-18T08:49:15.559Z,75.01
2022-12-18T08:50:00.515Z,75.01
2022-12-18T08:50:45.883Z,75.01
2022-12-18T08:51:31.033Z,75.01
2022-12-18T08:52:15.789Z,75.01
2022-12-18T08:53:00.971Z,75.01
2022-12-18T08:53:45.903Z,75.01
2022-12-18T08:54:30.984Z,75.01
2022-12-18T08:55:15.923Z,75.01
2022-12-18T08:56:01.129Z,75.01
2022-12-18T08:56:46.220Z,75.01
2022-12-18T08:57:30.954Z,75.01
2022-12-18T08:58:16.129Z,75.01
2022-12-18T08:59:01.294Z,75.01
2022-12-18T08:59:46.345Z,75.01
2022-12-18T09:00:31.506Z,75.01
2022-12-18T09:01:16.546Z,75.01
2022-12-18T09:02:01.764Z,75.01
2022-12-18T09:02:47.101Z,75.01
2022-12-18T09:03:31.620Z,75.01
2022-12-18T09:04:16.581Z,75.01
2022-12-18T09:05:01.567Z,75.01
2022-12-18T09:05:46.892Z,75.01
2022-12-18T09:06:31.892Z,75.01
2022-12-18T09:07:16.928Z,75.01
2022-12-18T09:08:02.068Z,75.01
2022-12-18T09:08:47.251Z,75.01
2022-12-18T09:09:32.081Z,75.01
2022-12-18T09:10:16.831Z,75.01
2022-12-18T09:11:02.149Z,75.01
2022-12-18T09:11:47.317Z,75.01
2022-12-18T09:12:32.103Z,75.01
2022-12-18T09:13:38.539Z,162.98
2022-12-18T09:15:11.363Z,164.53
